sensor_id;sensor_type;location;lat;lon;timestamp;pressure;altitude;pressure_sealevel;temperature;humidity
69171;BME280;56279;47.902;12.308;2023-01-25T00:01:33;96807.19;;;1.37;96.17
69171;BME280;56279;47.902;12.308;2023-01-25T00:03:34;96814.78;;;1.39;96.37
69171;BME280;56279;47.902;12.308;2023-01-25T00:05:35;96813.00;;;1.39;96.34
69171;BME280;56279;47.902;12.308;2023-01-25T00:07:37;96803.41;;;1.40;96.22
69171;BME280;56279;47.902;12.308;2023-01-25T00:09:38;96810.19;;;1.41;96.65
69171;BME280;56279;47.902;12.308;2023-01-25T00:11:40;96805.19;;;1.39;96.25
69171;BME280;56279;47.902;12.308;2023-01-25T00:13:41;96801.97;;;1.37;96.90
69171;BME280;56279;47.902;12.308;2023-01-25T00:15:44;96798.56;;;1.37;96.40
69171;BME280;56279;47.902;12.308;2023-01-25T00:17:45;96799.91;;;1.33;96.50
69171;BME280;56279;47.902;12.308;2023-01-25T00:19:46;96800.28;;;1.30;96.77
69171;BME280;56279;47.902;12.308;2023-01-25T00:21:47;96802.25;;;1.28;96.19
69171;BME280;56279;47.902;12.308;2023-01-25T00:23:49;96798.84;;;1.27;97.02
69171;BME280;56279;47.902;12.308;2023-01-25T00:25:57;96801.44;;;1.27;96.14
69171;BME280;56279;47.902;12.308;2023-01-25T00:27:58;96797.84;;;1.28;96.92
69171;BME280;56279;47.902;12.308;2023-01-25T00:29:59;96794.25;;;1.29;96.88
69171;BME280;56279;47.902;12.308;2023-01-25T00:36:33;96793.28;;;1.30;96.75
69171;BME280;56279;47.902;12.308;2023-01-25T00:38:42;96795.06;;;1.30;96.04
69171;BME280;56279;47.902;12.308;2023-01-25T00:40:48;96798.66;;;1.29;97.13
69171;BME280;56279;47.902;12.308;2023-01-25T00:42:58;96803.84;;;1.29;96.75
69171;BME280;56279;47.902;12.308;2023-01-25T00:45:00;96806.84;;;1.26;96.29
69171;BME280;56279;47.902;12.308;2023-01-25T00:47:01;96808.63;;;1.25;96.66
69171;BME280;56279;47.902;12.308;2023-01-25T00:49:35;96807.00;;;1.24;97.08
69171;BME280;56279;47.902;12.308;2023-01-25T00:51:36;96803.78;;;1.22;96.39
69171;BME280;56279;47.902;12.308;2023-01-25T00:53:38;96806.94;;;1.18;96.46
69171;BME280;56279;47.902;12.308;2023-01-25T00:55:40;96805.13;;;1.18;96.45
69171;BME280;56279;47.902;12.308;2023-01-25T00:57:41;96812.13;;;1.18;96.23
69171;BME280;56279;47.902;12.308;2023-01-25T00:59:47;96810.50;;;1.17;96.75
69171;BME280;56279;47.902;12.308;2023-01-25T01:02:09;96810.50;;;1.17;96.45
69171;BME280;56279;47.902;12.308;2023-01-25T01:04:10;96806.13;;;1.17;96.82
69171;BME280;56279;47.902;12.308;2023-01-25T01:06:15;96815.88;;;1.15;96.57
69171;BME280;56279;47.902;12.308;2023-01-25T01:08:16;96807.28;;;1.15;96.29
69171;BME280;56279;47.902;12.308;2023-01-25T01:10:19;96812.69;;;1.13;97.27
69171;BME280;56279;47.902;12.308;2023-01-25T01:12:20;96809.44;;;1.11;96.86
69171;BME280;56279;47.902;12.308;2023-01-25T01:14:22;96816.44;;;1.11;97.33
69171;BME280;56279;47.902;12.308;2023-01-25T01:16:25;96818.84;;;1.12;97.17
69171;BME280;56279;47.902;12.308;2023-01-25T01:18:33;96812.69;;;1.13;96.75
69171;BME280;56279;47.902;12.308;2023-01-25T01:20:35;96814.28;;;1.14;96.42
69171;BME280;56279;47.902;12.308;2023-01-25T01:22:36;96815.88;;;1.15;97.42
69171;BME280;56279;47.902;12.308;2023-01-25T01:24:37;96813.09;;;1.17;96.80
69171;BME280;56279;47.902;12.308;2023-01-25T01:26:41;96815.69;;;1.17;96.86
69171;BME280;56279;47.902;12.308;2023-01-25T01:28:43;96811.31;;;1.17;96.81
69171;BME280;56279;47.902;12.308;2023-01-25T01:30:44;96812.13;;;1.18;96.44
69171;BME280;56279;47.902;12.308;2023-01-25T01:32:45;96816.97;;;1.21;97.02
69171;BME280;56279;47.902;12.308;2023-01-25T01:34:47;96810.97;;;1.20;96.81
69171;BME280;56279;47.902;12.308;2023-01-25T01:37:16;96805.75;;;1.20;95.98
69171;BME280;56279;47.902;12.308;2023-01-25T01:39:18;96801.38;;;1.21;97.01
69171;BME280;56279;47.902;12.308;2023-01-25T01:41:19;96806.56;;;1.21;96.86
69171;BME280;56279;47.902;12.308;2023-01-25T01:43:22;96808.16;;;1.22;96.20
69171;BME280;56279;47.902;12.308;2023-01-25T01:47:52;96803.44;;;1.25;96.82
69171;BME280;56279;47.902;12.308;2023-01-25T01:50:02;96806.19;;;1.24;96.20
69171;BME280;56279;47.902;12.308;2023-01-25T01:52:12;96805.41;;;1.23;97.19
69171;BME280;56279;47.902;12.308;2023-01-25T01:54:24;96806.38;;;1.22;96.78
69171;BME280;56279;47.902;12.308;2023-01-25T01:56:45;96802.34;;;1.20;96.34
69171;BME280;56279;47.902;12.308;2023-01-25T01:58:52;96796.97;;;1.21;96.76
69171;BME280;56279;47.902;12.308;2023-01-25T02:00:54;96799.56;;;1.21;96.43
69171;BME280;56279;47.902;12.308;2023-01-25T02:02:57;96802.34;;;1.20;96.68
69171;BME280;56279;47.902;12.308;2023-01-25T02:05:00;96803.16;;;1.20;96.44
69171;BME280;56279;47.902;12.308;2023-01-25T02:10:47;96796.34;;;1.19;96.42
69171;BME280;56279;47.902;12.308;2023-01-25T02:12:51;96793.75;;;1.19;96.84
69171;BME280;56279;47.902;12.308;2023-01-25T02:15:04;96790.97;;;1.21;96.44
69171;BME280;56279;47.902;12.308;2023-01-25T02:17:11;96792.56;;;1.22;95.92
69171;BME280;56279;47.902;12.308;2023-01-25T02:19:33;96781.34;;;1.21;96.19
69171;BME280;56279;47.902;12.308;2023-01-25T02:21:43;96775.53;;;1.19;95.99
69171;BME280;56279;47.902;12.308;2023-01-25T02:23:59;96774.56;;;1.20;96.03
69171;BME280;56279;47.902;12.308;2023-01-25T02:26:04;96774.38;;;1.22;95.94
69171;BME280;56279;47.902;12.308;2023-01-25T02:28:15;96774.22;;;1.23;96.81
69171;BME280;56279;47.902;12.308;2023-01-25T02:30:23;96773.19;;;1.24;96.30
69171;BME280;56279;47.902;12.308;2023-01-25T02:32:26;96768.00;;;1.24;96.29
69171;BME280;56279;47.902;12.308;2023-01-25T02:34:27;96779.22;;;1.25;96.40
69171;BME280;56279;47.902;12.308;2023-01-25T02:36:33;96774.22;;;1.23;96.42
69171;BME280;56279;47.902;12.308;2023-01-25T02:38:39;96766.41;;;1.23;96.65
69171;BME280;56279;47.902;12.308;2023-01-25T02:40:48;96758.78;;;1.22;95.90
69171;BME280;56279;47.902;12.308;2023-01-25T02:42:53;96759.59;;;1.22;96.35
69171;BME280;56279;47.902;12.308;2023-01-25T02:44:54;96753.41;;;1.23;96.83
69171;BME280;56279;47.902;12.308;2023-01-25T02:46:55;96753.41;;;1.23;96.13
69171;BME280;56279;47.902;12.308;2023-01-25T02:48:58;96761.22;;;1.23;96.32
69171;BME280;56279;47.902;12.308;2023-01-25T02:51:06;96753.41;;;1.23;95.92
69171;BME280;56279;47.902;12.308;2023-01-25T02:53:08;96743.78;;;1.24;96.40
69171;BME280;56279;47.902;12.308;2023-01-25T02:55:09;96755.00;;;1.24;96.37
69171;BME280;56279;47.902;12.308;2023-01-25T02:57:11;96754.84;;;1.26;95.83
69171;BME280;56279;47.902;12.308;2023-01-25T02:59:17;96756.63;;;1.25;96.51
69171;BME280;56279;47.902;12.308;2023-01-25T03:01:23;96752.41;;;1.24;96.03
69171;BME280;56279;47.902;12.308;2023-01-25T03:03:25;96753.22;;;1.25;96.62
69171;BME280;56279;47.902;12.308;2023-01-25T03:05:27;96752.41;;;1.24;96.69
69171;BME280;56279;47.902;12.308;2023-01-25T03:07:29;96756.63;;;1.25;96.96
69171;BME280;56279;47.902;12.308;2023-01-25T03:09:30;96754.84;;;1.26;96.69
69171;BME280;56279;47.902;12.308;2023-01-25T03:11:32;96757.59;;;1.24;95.83
69171;BME280;56279;47.902;12.308;2023-01-25T03:13:35;96750.97;;;1.22;96.44
69171;BME280;56279;47.902;12.308;2023-01-25T03:15:36;96751.16;;;1.20;95.95
69171;BME280;56279;47.902;12.308;2023-01-25T03:17:38;96750.97;;;1.22;96.51
69171;BME280;56279;47.902;12.308;2023-01-25T03:19:39;96751.34;;;1.19;96.17
69171;BME280;56279;47.902;12.308;2023-01-25T03:21:41;96748.94;;;1.17;96.88
69171;BME280;56279;47.902;12.308;2023-01-25T03:23:43;96759.31;;;1.17;96.18
69171;BME280;56279;47.902;12.308;2023-01-25T03:25:49;96757.72;;;1.16;96.26
69171;BME280;56279;47.902;12.308;2023-01-25T03:27:52;96761.31;;;1.15;96.51
69171;BME280;56279;47.902;12.308;2023-01-25T03:29:54;96757.09;;;1.14;96.29
69171;BME280;56279;47.902;12.308;2023-01-25T03:32:01;96758.91;;;1.14;95.73
69171;BME280;56279;47.902;12.308;2023-01-25T03:34:02;96763.09;;;1.15;96.65
69171;BME280;56279;47.902;12.308;2023-01-25T03:36:09;96760.50;;;1.15;96.62
69171;BME280;56279;47.902;12.308;2023-01-25T03:38:11;96748.31;;;1.15;96.44
69171;BME280;56279;47.902;12.308;2023-01-25T03:40:12;96753.50;;;1.15;96.57
69171;BME280;56279;47.902;12.308;2023-01-25T03:42:19;96760.06;;;1.11;95.75
69171;BME280;56279;47.902;12.308;2023-01-25T03:44:22;96751.66;;;1.09;96.56
69171;BME280;56279;47.902;12.308;2023-01-25T03:46:24;96756.84;;;1.09;96.34
69171;BME280;56279;47.902;12.308;2023-01-25T03:48:26;96753.63;;;1.07;95.90
69171;BME280;56279;47.902;12.308;2023-01-25T03:50:28;96749.59;;;1.05;96.43
69171;BME280;56279;47.902;12.308;2023-01-25T03:52:29;96745.03;;;1.07;96.75
69171;BME280;56279;47.902;12.308;2023-01-25T03:54:38;96747.63;;;1.07;95.99
69171;BME280;56279;47.902;12.308;2023-01-25T03:56:40;96748.59;;;1.06;96.28
69171;BME280;56279;47.902;12.308;2023-01-25T03:58:50;96742.41;;;1.07;96.12
69171;BME280;56279;47.902;12.308;2023-01-25T04:00:56;96742.56;;;1.05;96.78
69171;BME280;56279;47.902;12.308;2023-01-25T04:02:58;96742.78;;;1.04;96.29
69171;BME280;56279;47.902;12.308;2023-01-25T04:05:01;96743.59;;;1.04;96.41
69171;BME280;56279;47.902;12.308;2023-01-25T04:07:02;96746.19;;;1.04;96.31
69171;BME280;56279;47.902;12.308;2023-01-25T04:09:05;96749.75;;;1.03;96.18
69171;BME280;56279;47.902;12.308;2023-01-25T04:11:13;96747.16;;;1.03;96.48
69171;BME280;56279;47.902;12.308;2023-01-25T04:13:17;96751.53;;;1.03;96.42
69171;BME280;56279;47.902;12.308;2023-01-25T04:15:19;96748.16;;;1.02;96.17
69171;BME280;56279;47.902;12.308;2023-01-25T04:17:20;96738.75;;;1.01;96.37
69171;BME280;56279;47.902;12.308;2023-01-25T04:19:28;96743.31;;;0.99;96.05
69171;BME280;56279;47.902;12.308;2023-01-25T04:21:32;96738.13;;;0.99;96.95
69171;BME280;56279;47.902;12.308;2023-01-25T04:23:34;96737.31;;;0.99;96.09
69171;BME280;56279;47.902;12.308;2023-01-25T04:25:36;96730.53;;;0.98;96.70
69171;BME280;56279;47.902;12.308;2023-01-25T04:27:40;96735.72;;;0.98;96.49
69171;BME280;56279;47.902;12.308;2023-01-25T04:29:45;96731.94;;;1.00;95.92
69171;BME280;56279;47.902;12.308;2023-01-25T04:31:51;96731.13;;;1.00;95.60
69171;BME280;56279;47.902;12.308;2023-01-25T04:33:54;96725.31;;;0.98;95.95
69171;BME280;56279;47.902;12.308;2023-01-25T04:35:55;96722.53;;;0.99;96.79
69171;BME280;56279;47.902;12.308;2023-01-25T04:37:58;96720.91;;;0.98;95.63
69171;BME280;56279;47.902;12.308;2023-01-25T04:40:05;96726.50;;;0.95;95.99
69171;BME280;56279;47.902;12.308;2023-01-25T04:42:12;96722.28;;;0.94;96.33
69171;BME280;56279;47.902;12.308;2023-01-25T04:44:14;96722.28;;;0.94;96.08
69171;BME280;56279;47.902;12.308;2023-01-25T04:46:16;96723.91;;;0.95;96.22
69171;BME280;56279;47.902;12.308;2023-01-25T04:48:18;96724.88;;;0.94;96.51
69171;BME280;56279;47.902;12.308;2023-01-25T04:50:25;96723.44;;;0.92;96.54
69171;BME280;56279;47.902;12.308;2023-01-25T04:52:27;96719.84;;;0.93;96.89
69171;BME280;56279;47.902;12.308;2023-01-25T04:54:28;96721.47;;;0.94;96.34
69171;BME280;56279;47.902;12.308;2023-01-25T04:56:29;96723.91;;;0.95;96.33
69171;BME280;56279;47.902;12.308;2023-01-25T04:58:32;96728.09;;;0.96;96.13
69171;BME280;56279;47.902;12.308;2023-01-25T05:00:33;96725.47;;;0.96;95.99
69171;BME280;56279;47.902;12.308;2023-01-25T05:02:36;96715.91;;;0.97;96.34
69171;BME280;56279;47.902;12.308;2023-01-25T05:04:40;96714.28;;;0.96;96.42
69171;BME280;56279;47.902;12.308;2023-01-25T05:06:41;96713.66;;;0.94;96.69
69171;BME280;56279;47.902;12.308;2023-01-25T05:08:44;96719.06;;;0.92;96.79
69171;BME280;56279;47.902;12.308;2023-01-25T05:10:45;96716.25;;;0.94;96.55
69171;BME280;56279;47.902;12.308;2023-01-25T05:16:00;96713.66;;;0.94;96.59
69171;BME280;56279;47.902;12.308;2023-01-25T05:18:32;96709.47;;;0.93;96.13
69171;BME280;56279;47.902;12.308;2023-01-25T05:20:36;96709.63;;;0.91;96.23
69171;BME280;56279;47.902;12.308;2023-01-25T05:22:37;96707.84;;;0.92;95.79
69171;BME280;56279;47.902;12.308;2023-01-25T05:24:39;96701.69;;;0.93;95.97
69171;BME280;56279;47.902;12.308;2023-01-25T05:26:49;96700.84;;;0.92;96.19
69171;BME280;56279;47.902;12.308;2023-01-25T05:29:41;96689.84;;;0.90;95.86
69171;BME280;56279;47.902;12.308;2023-01-25T05:32:11;96699.22;;;0.91;96.20
69171;BME280;56279;47.902;12.308;2023-01-25T05:34:13;96693.06;;;0.92;96.24
69171;BME280;56279;47.902;12.308;2023-01-25T05:36:24;96693.88;;;0.93;96.37
69171;BME280;56279;47.902;12.308;2023-01-25T05:38:28;96688.84;;;0.91;96.16
69171;BME280;56279;47.902;12.308;2023-01-25T05:40:29;96690.47;;;0.92;96.56
69171;BME280;56279;47.902;12.308;2023-01-25T05:43:06;96683.47;;;0.93;96.07
69171;BME280;56279;47.902;12.308;2023-01-25T05:45:27;96691.09;;;0.94;96.56
69171;BME280;56279;47.902;12.308;2023-01-25T05:47:30;96683.09;;;0.96;95.95
69171;BME280;56279;47.902;12.308;2023-01-25T05:49:57;96678.09;;;0.94;96.45
69171;BME280;56279;47.902;12.308;2023-01-25T05:52:15;96676.31;;;0.95;96.06
69171;BME280;56279;47.902;12.308;2023-01-25T05:54:17;96678.72;;;0.96;96.36
69171;BME280;56279;47.902;12.308;2023-01-25T05:56:29;96682.94;;;0.97;95.38
69171;BME280;56279;47.902;12.308;2023-01-25T05:58:30;96684.91;;;0.95;96.09
69171;BME280;56279;47.902;12.308;2023-01-25T06:00:36;96678.72;;;0.96;95.55
69171;BME280;56279;47.902;12.308;2023-01-25T06:02:38;96672.69;;;0.96;95.90
69171;BME280;56279;47.902;12.308;2023-01-25T06:04:39;96675.13;;;0.97;95.49
69171;BME280;56279;47.902;12.308;2023-01-25T06:06:42;96675.13;;;0.97;96.13
69171;BME280;56279;47.902;12.308;2023-01-25T06:08:43;96676.72;;;0.98;96.34
69171;BME280;56279;47.902;12.308;2023-01-25T06:10:45;96668.78;;;1.00;95.51
69171;BME280;56279;47.902;12.308;2023-01-25T06:12:56;96671.97;;;1.02;96.14
69171;BME280;56279;47.902;12.308;2023-01-25T06:14:57;96671.19;;;1.01;95.51
69171;BME280;56279;47.902;12.308;2023-01-25T06:16:58;96670.19;;;1.02;96.44
69171;BME280;56279;47.902;12.308;2023-01-25T06:19:18;96667.59;;;1.02;95.72
69171;BME280;56279;47.902;12.308;2023-01-25T06:21:27;96674.38;;;1.03;95.92
69171;BME280;56279;47.902;12.308;2023-01-25T06:23:28;96674.78;;;1.00;95.57
69171;BME280;56279;47.902;12.308;2023-01-25T06:25:32;96674.38;;;1.03;96.54
69171;BME280;56279;47.902;12.308;2023-01-25T06:27:34;96679.78;;;1.02;95.70
69171;BME280;56279;47.902;12.308;2023-01-25T06:29:35;96676.38;;;1.01;96.03
69171;BME280;56279;47.902;12.308;2023-01-25T06:31:36;96672.34;;;0.99;95.36
69171;BME280;56279;47.902;12.308;2023-01-25T06:33:39;96678.34;;;0.99;96.30
69171;BME280;56279;47.902;12.308;2023-01-25T06:35:41;96675.75;;;0.99;95.52
69171;BME280;56279;47.902;12.308;2023-01-25T06:37:43;96678.34;;;0.99;96.33
69171;BME280;56279;47.902;12.308;2023-01-25T06:39:44;96676.38;;;1.01;96.15
69171;BME280;56279;47.902;12.308;2023-01-25T06:41:49;96673.78;;;1.01;95.89
69171;BME280;56279;47.902;12.308;2023-01-25T06:43:50;96683.19;;;1.02;95.53
69171;BME280;56279;47.902;12.308;2023-01-25T06:45:51;96683.97;;;1.03;96.13
69171;BME280;56279;47.902;12.308;2023-01-25T06:47:53;96678.78;;;1.03;95.07
69171;BME280;56279;47.902;12.308;2023-01-25T06:49:54;96676.63;;;1.06;95.51
69171;BME280;56279;47.902;12.308;2023-01-25T06:52:01;96674.66;;;1.08;96.30
69171;BME280;56279;47.902;12.308;2023-01-25T06:54:03;96675.25;;;1.10;95.53
69171;BME280;56279;47.902;12.308;2023-01-25T06:56:16;96665.47;;;1.12;95.23
69171;BME280;56279;47.902;12.308;2023-01-25T06:58:20;96662.53;;;1.15;95.36
69171;BME280;56279;47.902;12.308;2023-01-25T07:00:31;96652.13;;;1.15;94.88
69171;BME280;56279;47.902;12.308;2023-01-25T07:02:32;96658.13;;;1.16;95.96
69171;BME280;56279;47.902;12.308;2023-01-25T07:04:33;96656.34;;;1.16;95.61
69171;BME280;56279;47.902;12.308;2023-01-25T07:06:35;96655.53;;;1.16;95.70
69171;BME280;56279;47.902;12.308;2023-01-25T07:08:36;96643.34;;;1.16;95.56
69171;BME280;56279;47.902;12.308;2023-01-25T07:10:38;96654.53;;;1.17;95.32
69171;BME280;56279;47.902;12.308;2023-01-25T07:12:39;96651.75;;;1.18;95.06
69171;BME280;56279;47.902;12.308;2023-01-25T07:14:40;96645.75;;;1.18;95.60
69171;BME280;56279;47.902;12.308;2023-01-25T07:16:42;96644.94;;;1.17;95.14
69171;BME280;56279;47.902;12.308;2023-01-25T07:18:43;96646.94;;;1.15;95.16
69171;BME280;56279;47.902;12.308;2023-01-25T07:20:44;96650.53;;;1.14;95.50
69171;BME280;56279;47.902;12.308;2023-01-25T07:22:45;96646.31;;;1.13;95.75
69171;BME280;56279;47.902;12.308;2023-01-25T07:24:49;96652.31;;;1.14;95.63
69171;BME280;56279;47.902;12.308;2023-01-25T07:26:52;96642.72;;;1.14;95.52
69171;BME280;56279;47.902;12.308;2023-01-25T07:28:55;96632.34;;;1.14;94.89
69171;BME280;56279;47.902;12.308;2023-01-25T07:31:03;96640.13;;;1.14;95.79
69171;BME280;56279;47.902;12.308;2023-01-25T07:33:06;96637.34;;;1.16;95.14
69171;BME280;56279;47.902;12.308;2023-01-25T07:35:07;96632.13;;;1.16;94.94
69171;BME280;56279;47.902;12.308;2023-01-25T07:37:09;96636.34;;;1.17;94.90
69171;BME280;56279;47.902;12.308;2023-01-25T07:39:10;96622.56;;;1.16;94.95
69171;BME280;56279;47.902;12.308;2023-01-25T07:41:13;96625.94;;;1.17;95.32
69171;BME280;56279;47.902;12.308;2023-01-25T07:43:16;96624.97;;;1.18;95.27
69171;BME280;56279;47.902;12.308;2023-01-25T07:45:18;96633.38;;;1.20;95.46
69171;BME280;56279;47.902;12.308;2023-01-25T07:47:20;96623.97;;;1.19;95.24
69171;BME280;56279;47.902;12.308;2023-01-25T07:49:21;96640.34;;;1.19;95.35
69171;BME280;56279;47.902;12.308;2023-01-25T07:51:22;96629.19;;;1.19;95.16
69171;BME280;56279;47.902;12.308;2023-01-25T07:53:24;96629.97;;;1.19;94.65
69171;BME280;56279;47.902;12.308;2023-01-25T07:55:25;96637.75;;;1.19;94.72
69171;BME280;56279;47.902;12.308;2023-01-25T07:57:26;96636.97;;;1.19;95.42
69171;BME280;56279;47.902;12.308;2023-01-25T07:59:28;96642.19;;;1.19;95.05
69171;BME280;56279;47.902;12.308;2023-01-25T08:01:31;96638.38;;;1.21;95.34
69171;BME280;56279;47.902;12.308;2023-01-25T08:03:34;96631.22;;;1.23;94.87
69171;BME280;56279;47.902;12.308;2023-01-25T08:05:35;96631.84;;;1.25;94.88
69171;BME280;56279;47.902;12.308;2023-01-25T08:07:36;96631.03;;;1.25;94.57
69171;BME280;56279;47.902;12.308;2023-01-25T08:09:39;96630.22;;;1.24;95.38
69171;BME280;56279;47.902;12.308;2023-01-25T08:11:41;96633.81;;;1.23;94.87
69171;BME280;56279;47.902;12.308;2023-01-25T08:13:42;96636.78;;;1.20;94.97
69171;BME280;56279;47.902;12.308;2023-01-25T08:15:52;96633.38;;;1.20;94.45
69171;BME280;56279;47.902;12.308;2023-01-25T08:17:58;96633.56;;;1.18;94.65
69171;BME280;56279;47.902;12.308;2023-01-25T08:19:59;96627.38;;;1.19;95.01
69171;BME280;56279;47.902;12.308;2023-01-25T08:22:01;96629.78;;;1.21;94.84
69171;BME280;56279;47.902;12.308;2023-01-25T08:24:04;96633.00;;;1.23;95.03
69171;BME280;56279;47.902;12.308;2023-01-25T08:26:08;96631.38;;;1.22;95.08
69171;BME280;56279;47.902;12.308;2023-01-25T08:28:09;96628.78;;;1.22;94.78
69171;BME280;56279;47.902;12.308;2023-01-25T08:30:12;96632.19;;;1.22;95.30
69171;BME280;56279;47.902;12.308;2023-01-25T08:32:13;96626.03;;;1.23;95.36
69171;BME280;56279;47.902;12.308;2023-01-25T08:34:16;96626.19;;;1.22;94.93
69171;BME280;56279;47.902;12.308;2023-01-25T08:36:18;96631.59;;;1.20;95.15
69171;BME280;56279;47.902;12.308;2023-01-25T08:38:20;96625.56;;;1.20;94.62
69171;BME280;56279;47.902;12.308;2023-01-25T08:40:24;96622.16;;;1.19;94.54
69171;BME280;56279;47.902;12.308;2023-01-25T08:42:27;96621.56;;;1.17;94.65
69171;BME280;56279;47.902;12.308;2023-01-25T08:44:29;96631.78;;;1.19;94.37
69171;BME280;56279;47.902;12.308;2023-01-25T08:46:31;96623.97;;;1.19;94.75
69171;BME280;56279;47.902;12.308;2023-01-25T08:48:33;96614.56;;;1.18;94.87
69171;BME280;56279;47.902;12.308;2023-01-25T08:50:34;96617.16;;;1.18;94.87
69171;BME280;56279;47.902;12.308;2023-01-25T08:52:35;96615.53;;;1.17;94.63
69171;BME280;56279;47.902;12.308;2023-01-25T08:54:37;96614.31;;;1.13;94.75
69171;BME280;56279;47.902;12.308;2023-01-25T08:56:39;96623.28;;;1.10;94.38
69171;BME280;56279;47.902;12.308;2023-01-25T08:58:45;96625.88;;;1.10;94.83
69171;BME280;56279;47.902;12.308;2023-01-25T09:00:47;96630.53;;;1.15;94.53
69171;BME280;56279;47.902;12.308;2023-01-25T09:02:49;96630.34;;;1.16;95.06
69171;BME280;56279;47.902;12.308;2023-01-25T09:04:50;96625.38;;;1.21;94.34
69171;BME280;56279;47.902;12.308;2023-01-25T09:06:51;96627.81;;;1.23;95.04
69171;BME280;56279;47.902;12.308;2023-01-25T09:08:53;96623.41;;;1.23;94.63
69171;BME280;56279;47.902;12.308;2023-01-25T09:10:54;96620.63;;;1.25;94.52
69171;BME280;56279;47.902;12.308;2023-01-25T09:12:55;96621.44;;;1.25;94.23
69171;BME280;56279;47.902;12.308;2023-01-25T09:14:56;96617.81;;;1.26;95.06
69171;BME280;56279;47.902;12.308;2023-01-25T09:16:58;96616.66;;;1.29;94.33
69171;BME280;56279;47.902;12.308;2023-01-25T09:19:01;96616.28;;;1.32;94.53
69171;BME280;56279;47.902;12.308;2023-01-25T09:21:14;96609.09;;;1.34;94.66
69171;BME280;56279;47.902;12.308;2023-01-25T09:23:15;96612.50;;;1.34;93.68
69171;BME280;56279;47.902;12.308;2023-01-25T09:25:17;96611.91;;;1.32;94.32
69171;BME280;56279;47.902;12.308;2023-01-25T09:27:18;96603.09;;;1.33;93.59
69171;BME280;56279;47.902;12.308;2023-01-25T09:29:20;96603.53;;;1.37;94.66
69171;BME280;56279;47.902;12.308;2023-01-25T09:31:21;96606.13;;;1.37;94.32
69171;BME280;56279;47.902;12.308;2023-01-25T09:33:43;96602.34;;;1.39;94.46
69171;BME280;56279;47.902;12.308;2023-01-25T09:35:48;96599.75;;;1.39;93.85
69171;BME280;56279;47.902;12.308;2023-01-25T09:37:50;96601.19;;;1.42;93.72
69171;BME280;56279;47.902;12.308;2023-01-25T09:39:52;96595.78;;;1.44;93.77
69171;BME280;56279;47.902;12.308;2023-01-25T09:42:10;96588.78;;;1.44;94.09
69171;BME280;56279;47.902;12.308;2023-01-25T09:46:44;96595.22;;;1.48;93.78
69171;BME280;56279;47.902;12.308;2023-01-25T09:49:25;96594.41;;;1.48;94.04
69171;BME280;56279;47.902;12.308;2023-01-25T09:51:45;96596.59;;;1.44;93.66
69171;BME280;56279;47.902;12.308;2023-01-25T09:53:53;96596.38;;;1.46;94.00
69171;BME280;56279;47.902;12.308;2023-01-25T09:56:01;96590.22;;;1.47;93.44
69171;BME280;56279;47.902;12.308;2023-01-25T09:58:03;96593.78;;;1.46;93.30
69171;BME280;56279;47.902;12.308;2023-01-25T10:00:15;96594.41;;;1.48;93.49
69171;BME280;56279;47.902;12.308;2023-01-25T10:02:54;96593.22;;;1.50;94.08
69171;BME280;56279;47.902;12.308;2023-01-25T10:05:05;96582.66;;;1.52;93.47
69171;BME280;56279;47.902;12.308;2023-01-25T10:07:30;96583.25;;;1.54;93.75
69171;BME280;56279;47.902;12.308;2023-01-25T10:09:52;96584.28;;;1.59;94.25
69171;BME280;56279;47.902;12.308;2023-01-25T10:12:08;96574.06;;;1.58;93.45
69171;BME280;56279;47.902;12.308;2023-01-25T10:14:16;96581.06;;;1.57;93.35
69171;BME280;56279;47.902;12.308;2023-01-25T10:20:56;96570.06;;;1.55;93.28
69171;BME280;56279;47.902;12.308;2023-01-25T10:25:45;96550.78;;;1.50;92.70
69171;BME280;56279;47.902;12.308;2023-01-25T10:29:56;96546.25;;;1.52;92.95
69171;BME280;56279;47.902;12.308;2023-01-25T10:32:14;96541.22;;;1.50;92.89
69171;BME280;56279;47.902;12.308;2023-01-25T10:34:23;96540.41;;;1.50;92.76
69171;BME280;56279;47.902;12.308;2023-01-25T10:36:28;96540.41;;;1.50;93.42
69171;BME280;56279;47.902;12.308;2023-01-25T10:38:45;96538.19;;;1.47;93.72
69171;BME280;56279;47.902;12.308;2023-01-25T10:40:53;96529.59;;;1.46;92.77
69171;BME280;56279;47.902;12.308;2023-01-25T10:43:02;96534.22;;;1.51;93.21
69171;BME280;56279;47.902;12.308;2023-01-25T10:45:13;96531.25;;;1.54;93.66
69171;BME280;56279;47.902;12.308;2023-01-25T10:47:19;96520.63;;;1.55;92.54
69171;BME280;56279;47.902;12.308;2023-01-25T10:49:50;96512.03;;;1.55;93.01
69171;BME280;56279;47.902;12.308;2023-01-25T10:51:52;96513.03;;;1.54;93.00
69171;BME280;56279;47.902;12.308;2023-01-25T10:54:04;96512.59;;;1.50;92.98
69171;BME280;56279;47.902;12.308;2023-01-25T10:56:20;96507.03;;;1.53;93.17
69171;BME280;56279;47.902;12.308;2023-01-25T10:58:31;96507.63;;;1.55;92.85
69171;BME280;56279;47.902;12.308;2023-01-25T11:00:39;96508.41;;;1.49;92.62
69171;BME280;56279;47.902;12.308;2023-01-25T11:02:44;96508.97;;;1.45;93.28
69171;BME280;56279;47.902;12.308;2023-01-25T11:04:47;96503.13;;;1.42;92.54
69171;BME280;56279;47.902;12.308;2023-01-25T11:06:48;96505.75;;;1.42;92.97
69171;BME280;56279;47.902;12.308;2023-01-25T11:08:51;96492.13;;;1.40;92.99
69171;BME280;56279;47.902;12.308;2023-01-25T11:10:52;96491.75;;;1.44;92.51
69171;BME280;56279;47.902;12.308;2023-01-25T11:13:27;96488.78;;;1.47;92.27
69171;BME280;56279;47.902;12.308;2023-01-25T11:15:29;96492.00;;;1.49;91.81
69171;BME280;56279;47.902;12.308;2023-01-25T11:17:30;96479.78;;;1.49;92.30
69171;BME280;56279;47.902;12.308;2023-01-25T11:19:37;96480.78;;;1.48;92.35
69171;BME280;56279;47.902;12.308;2023-01-25T11:21:53;96479.97;;;1.48;92.66
69171;BME280;56279;47.902;12.308;2023-01-25T11:26:17;96476.56;;;1.47;92.33
69171;BME280;56279;47.902;12.308;2023-01-25T11:28:23;96463.16;;;1.44;92.53
69171;BME280;56279;47.902;12.308;2023-01-25T11:30:24;96465.75;;;1.44;92.50
69171;BME280;56279;47.902;12.308;2023-01-25T11:32:25;96464.38;;;1.48;92.16